الجوف, السعودية

11:11 AM AST on êèنêè 30, 2015 (GMT +0300)
Al Jouf | | Change Station
CLOSE
Current Station
Airport
Location: Al-Jouf,
Elevation: 2260 ft
Nearby Weather Stations

Elev 2260 ft 29.79 °N, 40.10 °E | Updated 1 hour ago

Clear
صافية
100 °F
Feels Like 100 °F
N
13
ريح متغير ريح from شمال

هذا اليوم
High -- | Low -- °F
--% Chance of Precip.
Yesterday
High -- | Low -- °F
Precip. -- في
5:37 AM 7:14 PM
الأحدب الأول, 98% visible
الضغط 29.83 في
وضوح الرؤية -9999.0 أميال
سحابات
نقطة الندى 36 °F
الرطوبة 11%
Rainfall 0.00 في
عمق الثلج Not available.
الأشعة فوق البنفسجية Not available.
Pollen Not available.
جودة الهواء Not available.
Flu Activity Not available.
METAR OESK 300700Z 36011KT CAVOK 38/02 Q1010 NOSIG

More Conditions Fewer Conditions

الضغط 29.83 في
وضوح الرؤية -9999.0 أميال
سحابات
نقطة الندى 36 °F
الرطوبة 11%
Rainfall 0.00 في
عمق الثلج Not available.
الأشعة فوق البنفسجية Not available.
Pollen Not available.
جودة الهواء Not available.
Flu Activity Not available.
METAR OESK 300700Z 36011KT CAVOK 38/02 Q1010 NOSIG

More Conditions Fewer Conditions

10-Day Weather Forecast

×

Almanac

علم الفلك

Jul. 30, 2015 Rise Set
Actual Time
Civil Twilight
Nautical Twilight
Astronomical Twilight
قمر
Length Of Visible Light
طول الیوم
Tomorrow will be .
, % of the Moon is Illuminated

Today's Extremes

Country Highs Country Lows

Community

WunderPhotos

Upload Photos

1,842,315 photos uploaded!

WunderBlogs® & News

Nearby

جودة الهواء

  جودة الهواء AQ Index Pollutant
Not available.

عمق الثلج

Station Depth Elevation

Earthquake Activity

City Distance Mag. Time & Date
Minimum magnitude displayed is 2.5.

Coastal Water Temperatures

مكان درجات الحرارة

Stations

Nearby Weather Stations

Station Location الحرارة رياح باردة نقطة الندى الرطوبة ريح Precip. Elev تحديث Type